Time;durP1;ratioP1;P1;durP2;ratioP2;P2;SDS_P1;SDS_P2;PMS_P1;PMS_P2;Temp;Humidity;BMP_temperature;BMP_pressure;BME280_temperature;BME280_humidity;BME280_pressure;Samples;Min_cycle;Max_cycle;Signal;HPM_P1;HPM_P2
2023/01/04 00:04:46;;;;;;;27.27;20.03;;;;;;;9.62;96.18;95828.84;5051958;28;20472;-82
2023/01/04 00:07:13;;;;;;;27.30;17.70;;;;;;;9.44;97.09;95816.94;5051639;28;20511;-82
2023/01/04 00:09:41;;;;;;;18.37;13.80;;;;;;;9.42;98.74;95819.66;5052084;28;20532;-82
2023/01/04 00:12:08;;;;;;;30.07;20.80;;;;;;;9.33;98.45;95828.13;5051618;28;20434;-82
2023/01/04 00:14:34;;;;;;;27.97;20.10;;;;;;;9.20;98.54;95835.06;5051772;28;20446;-82
2023/01/04 00:17:01;;;;;;;28.67;20.57;;;;;;;9.07;98.32;95827.16;5051452;28;20434;-82
2023/01/04 00:19:28;;;;;;;30.73;23.10;;;;;;;8.99;98.33;95825.06;5051668;28;20865;-82
2023/01/04 00:21:55;;;;;;;30.40;22.50;;;;;;;9.05;98.47;95831.66;5051481;28;20430;-82
2023/01/04 00:24:22;;;;;;;28.47;21.07;;;;;;;9.03;98.70;95823.06;5051531;28;20943;-82
2023/01/04 00:26:50;;;;;;;35.83;23.27;;;;;;;8.98;98.34;95830.38;5051588;28;20437;-82
2023/01/04 00:29:16;;;;;;;30.13;22.20;;;;;;;8.86;98.16;95820.66;5051338;28;20978;-82
2023/01/04 00:31:44;;;;;;;40.93;24.43;;;;;;;8.78;99.03;95817.72;5051938;28;20958;-82
2023/01/04 00:34:14;;;;;;;33.70;20.20;;;;;;;8.83;99.54;95815.63;5051768;28;20959;-82
2023/01/04 00:36:41;;;;;;;31.20;20.87;;;;;;;8.81;99.73;95828.81;5053262;28;20889;-82
2023/01/04 00:39:14;;;;;;;30.10;19.70;;;;;;;8.79;100.00;95822.00;5035004;28;20461;-82
2023/01/04 00:41:42;;;;;;;33.07;19.90;;;;;;;8.85;100.00;95824.22;5053320;28;20536;-82
2023/01/04 00:44:11;;;;;;;22.07;15.73;;;;;;;8.77;100.00;95819.47;5053065;28;20543;-82
2023/01/04 00:46:39;;;;;;;34.50;24.97;;;;;;;8.77;100.00;95829.13;5053233;28;20437;-82
2023/01/04 00:49:07;;;;;;;35.30;22.57;;;;;;;8.72;98.96;95836.41;5053546;28;20484;-82
2023/01/04 00:51:35;;;;;;;36.63;22.70;;;;;;;8.57;99.03;95839.03;5053064;28;21021;-82
2023/01/04 00:54:04;;;;;;;29.70;22.23;;;;;;;8.43;99.29;95836.44;5053482;28;20434;-82
2023/01/04 00:56:31;;;;;;;28.83;19.17;;;;;;;8.42;99.85;95840.00;5053707;28;20779;-82
2023/01/04 00:59:00;;;;;;;31.30;21.90;;;;;;;8.28;100.00;95838.16;5053598;28;20437;-82
2023/01/04 01:01:29;;;;;;;28.47;21.30;;;;;;;8.30;100.00;95838.91;5034726;28;20856;-82
2023/01/04 01:03:58;;;;;;;36.50;23.47;;;;;;;8.45;100.00;95852.88;5053036;28;20437;-82
2023/01/04 01:06:26;;;;;;;29.97;21.10;;;;;;;8.36;100.00;95835.09;5052903;28;20444;-81
2023/01/04 01:08:53;;;;;;;27.43;20.00;;;;;;;8.48;100.00;95844.00;5053272;28;20491;-82
2023/01/04 01:49:14;;;;;;;39.27;25.00;;;;;;;8.54;100.00;95843.63;5033323;28;20492;-82
2023/01/04 01:51:42;;;;;;;31.90;21.70;;;;;;;8.54;99.74;95835.78;5056155;28;20622;-82
2023/01/04 01:54:13;;;;;;;35.93;22.50;;;;;;;8.49;99.60;95830.81;5056600;28;20434;-82
2023/01/04 01:56:44;;;;;;;22.03;16.27;;;;;;;8.44;100.00;95835.50;5056205;28;20927;-82
2023/01/04 01:59:13;;;;;;;20.90;15.40;;;;;;;8.46;100.00;95831.00;5038252;28;20490;-82
2023/01/04 02:01:40;;;;;;;23.03;15.90;;;;;;;8.57;100.00;95823.34;5056446;28;20454;-82
2023/01/04 02:07:30;;;;;;;17.90;14.40;;;;;;;8.80;100.00;95813.22;5055726;28;20927;-82
2023/01/04 02:09:58;;;;;;;20.77;14.93;;;;;;;8.89;100.00;95815.25;5037774;28;20484;-82
2023/01/04 02:12:25;;;;;;;16.27;13.30;;;;;;;8.96;100.00;95824.38;5056275;28;21006;-82
2023/01/04 02:14:52;;;;;;;18.50;15.03;;;;;;;8.99;100.00;95825.06;5037930;28;20445;-82
2023/01/04 02:17:32;;;;;;;17.73;14.70;;;;;;;9.06;100.00;95825.50;5056719;28;20437;-82
2023/01/04 02:20:29;;;;;;;15.87;14.07;;;;;;;9.10;100.00;95824.34;5055744;28;20433;-82
2023/01/04 02:23:40;;;;;;;21.03;14.53;;;;;;;9.09;100.00;95827.06;5055489;28;20445;-82
2023/01/04 02:26:39;;;;;;;19.80;14.77;;;;;;;9.10;100.00;95826.13;4994306;28;20452;-82
2023/01/04 02:29:37;;;;;;;20.80;13.10;;;;;;;9.14;100.00;95825.84;4994788;28;20449;-82
2023/01/04 02:32:12;;;;;;;19.53;15.23;;;;;;;9.19;100.00;95825.53;4994234;28;20503;-82
2023/01/04 02:34:46;;;;;;;24.17;14.13;;;;;;;9.20;100.00;95820.19;4994427;28;20846;-82
2023/01/04 02:37:20;;;;;;;20.97;15.83;;;;;;;9.25;100.00;95823.38;4994058;28;20450;-82
2023/01/04 02:39:56;;;;;;;22.17;15.20;;;;;;;9.21;99.76;95819.25;4994124;28;20907;-82
2023/01/04 02:45:14;;;;;;;18.93;14.33;;;;;;;9.23;100.00;95813.91;4993189;28;20436;-82
2023/01/04 02:50:32;;;;;;;16.00;13.93;;;;;;;9.20;99.96;95814.13;4993710;28;20964;-82
2023/01/04 03:06:15;;;;;;;17.07;11.83;;;;;;;9.20;96.14;95824.59;5055023;28;20906;-82
2023/01/04 03:08:50;;;;;;;15.17;10.30;;;;;;;9.14;94.58;95825.00;5055201;28;20817;-82
2023/01/04 03:14:07;;;;;;;16.13;11.00;;;;;;;8.94;91.50;95828.88;5054897;28;20875;-81
2023/01/04 03:16:38;;;;;;;15.97;10.20;;;;;;;8.80;90.12;95836.78;5055064;28;20427;-81
2023/01/04 03:19:09;;;;;;;11.00;8.57;;;;;;;8.60;89.98;95840.63;5036396;28;20460;-82
2023/01/04 03:21:38;;;;;;;14.00;11.47;;;;;;;8.42;90.82;95833.91;5036789;28;20540;-81
2023/01/04 03:48:33;;;;;;;12.63;8.90;;;;;;;7.47;94.50;95863.00;5054482;28;20766;-81
2023/01/04 03:51:08;;;;;;;13.03;9.80;;;;;;;7.44;94.45;95852.72;5054613;28;20992;-81
2023/01/04 03:57:16;;;;;;;11.90;8.83;;;;;;;7.27;94.24;95850.25;5054049;28;20396;-81
2023/01/04 03:59:49;;;;;;;16.07;10.97;;;;;;;7.26;95.66;95854.63;5054239;28;20502;-81
2023/01/04 04:02:22;;;;;;;16.77;12.00;;;;;;;7.23;97.20;95848.72;5054099;28;20498;-84
2023/01/04 04:10:17;;;;;;;16.07;10.90;;;;;;;7.26;98.58;95853.78;5053745;28;20832;-82
2023/01/04 04:12:44;;;;;;;13.77;9.90;;;;;;;7.15;97.74;95852.59;5053646;28;20493;-81
2023/01/04 04:15:12;;;;;;;12.67;10.00;;;;;;;7.08;96.86;95866.09;5053896;28;20432;-82
2023/01/04 04:17:39;;;;;;;14.10;11.10;;;;;;;7.04;97.57;95864.56;5054053;28;20432;-81
2023/01/04 04:20:06;;;;;;;12.90;9.70;;;;;;;7.00;97.91;95868.28;5053918;28;20487;-82
2023/01/04 04:22:34;;;;;;;12.90;9.60;;;;;;;6.99;97.57;95870.06;5053760;28;20432;-82
2023/01/04 04:25:00;;;;;;;17.03;10.20;;;;;;;7.02;97.64;95867.28;5053679;28;20436;-82
2023/01/04 04:27:27;;;;;;;12.33;8.87;;;;;;;7.06;98.45;95865.34;5054095;28;20486;-81
2023/01/04 04:29:54;;;;;;;15.60;11.50;;;;;;;7.07;98.80;95874.84;5034823;28;20894;-84
2023/01/04 04:32:22;;;;;;;13.83;10.37;;;;;;;7.04;98.87;95864.56;5033864;28;20481;-86
2023/01/04 04:34:49;;;;;;;16.03;11.00;;;;;;;7.00;98.71;95863.06;5034010;28;20530;-84
2023/01/04 04:37:16;;;;;;;15.50;10.57;;;;;;;7.09;99.45;95879.03;5050220;28;20947;-86
2023/01/04 04:39:42;;;;;;;15.60;11.07;;;;;;;7.04;99.89;95880.22;5052895;28;20451;-85
2023/01/04 04:42:08;;;;;;;22.20;15.30;;;;;;;7.12;100.00;95862.38;5052722;28;20515;-85
2023/01/04 04:44:35;;;;;;;22.30;14.43;;;;;;;7.34;100.00;95868.09;5052798;28;20437;-84
2023/01/04 04:47:02;;;;;;;22.30;15.00;;;;;;;7.56;100.00;95877.31;5052513;28;21010;-86
2023/01/04 04:49:31;;;;;;;24.50;15.93;;;;;;;7.72;100.00;95862.44;5052462;28;20963;-85
2023/01/04 04:51:59;;;;;;;24.37;15.73;;;;;;;7.90;100.00;95868.38;5053017;28;20877;-85
2023/01/04 04:54:26;;;;;;;18.87;13.23;;;;;;;8.02;100.00;95860.63;5052724;28;20450;-85
2023/01/04 04:56:53;;;;;;;30.20;16.10;;;;;;;8.07;100.00;95869.03;5052479;28;20460;-84
2023/01/04 04:59:19;;;;;;;24.70;16.63;;;;;;;8.12;100.00;95876.63;5052758;28;20444;-85
2023/01/04 05:01:46;;;;;;;20.77;14.90;;;;;;;8.16;100.00;95872.91;5017363;28;20955;-86
2023/01/04 05:04:15;;;;;;;17.87;13.50;;;;;;;8.23;100.00;95879.44;5052588;28;20456;-85
2023/01/04 05:06:43;;;;;;;25.10;15.10;;;;;;;8.21;100.00;95877.84;5052719;28;20445;-86
2023/01/04 05:09:11;;;;;;;29.57;15.50;;;;;;;8.27;100.00;95885.31;5034038;28;20940;-86
2023/01/04 05:14:22;;;;;;;19.60;15.23;;;;;;;11.96;100.00;95878.91;5052694;28;20538;-85
2023/01/04 05:16:49;;;;;;;19.63;14.03;;;;;;;10.71;100.00;95882.66;5053052;28;20454;-87
2023/01/04 05:19:16;;;;;;;20.60;15.80;;;;;;;10.30;100.00;95894.19;5052903;28;20450;-86
2023/01/04 05:21:44;;;;;;;19.83;15.10;;;;;;;9.98;100.00;95893.69;5052699;28;20455;-86
2023/01/04 05:24:12;;;;;;;26.20;16.20;;;;;;;9.71;100.00;95896.34;5052467;28;20459;-86
2023/01/04 05:26:39;;;;;;;19.60;15.23;;;;;;;9.49;100.00;95898.69;5052618;28;20449;-83
2023/01/04 05:29:06;;;;;;;19.80;15.93;;;;;;;9.27;100.00;95897.47;5052768;28;20442;-85
2023/01/04 05:31:52;;;;;;;16.10;13.47;;;;;;;9.05;100.00;95889.25;5052173;28;20481;-85
2023/01/04 05:34:18;;;;;;;24.67;16.03;;;;;;;8.93;100.00;95895.25;5017560;28;20450;-87
2023/01/04 05:36:47;;;;;;;26.93;16.90;;;;;;;8.86;100.00;95893.97;5052303;28;20253;-86
2023/01/04 05:39:13;;;;;;;33.13;20.13;;;;;;;8.77;100.00;95898.00;5052479;28;20871;-86
2023/01/04 05:44:25;;;;;;;24.30;17.90;;;;;;;8.59;100.00;95910.41;5052256;28;20519;-85
2023/01/04 05:46:51;;;;;;;26.23;17.50;;;;;;;8.56;100.00;95905.38;5052520;28;20457;-86
2023/01/04 05:49:18;;;;;;;32.37;20.50;;;;;;;8.56;100.00;95917.59;5052456;28;20453;-87
2023/01/04 05:51:46;;;;;;;31.00;18.20;;;;;;;8.59;100.00;95913.03;5052197;28;20991;-86
2023/01/04 05:54:13;;;;;;;19.73;14.70;;;;;;;8.57;100.00;95909.66;5052995;28;20434;-86
2023/01/04 05:56:40;;;;;;;23.50;15.57;;;;;;;8.55;100.00;95910.69;5052827;28;20452;-86
2023/01/04 05:59:07;;;;;;;25.43;16.63;;;;;;;8.59;100.00;95917.41;5053720;28;20437;-84
2023/01/04 06:01:33;;;;;;;23.77;14.57;;;;;;;8.56;100.00;95902.75;5034472;28;20443;-85
2023/01/04 06:04:00;;;;;;;25.40;16.03;;;;;;;8.59;100.00;95910.41;5036322;28;20445;-87
2023/01/04 06:06:27;;;;;;;21.50;15.87;;;;;;;8.63;100.00;95911.91;5037295;28;20427;-90
2023/01/04 06:08:55;;;;;;;25.10;15.23;;;;;;;8.65;100.00;95907.41;5037078;28;20453;-88
2023/01/04 06:11:22;;;;;;;27.67;19.17;;;;;;;8.69;100.00;95913.31;5036728;28;20481;-87
2023/01/04 06:13:49;;;;;;;21.63;16.37;;;;;;;9.47;100.00;95906.63;5036935;28;20427;-91
2023/01/04 06:16:16;;;;;;;30.57;20.80;;;;;;;10.01;100.00;95903.16;5037199;28;20477;-91
2023/01/04 06:18:43;;;;;;;28.60;19.23;;;;;;;10.55;100.00;95920.47;5037139;28;20829;-85
2023/01/04 06:21:10;;;;;;;31.67;22.80;;;;;;;10.53;95.79;95932.84;5049146;28;20462;-85
2023/01/04 06:23:37;;;;;;;31.60;15.57;;;;;;;10.37;100.00;95919.06;5056232;28;20440;-88
2023/01/04 06:26:05;;;;;;;24.50;17.67;;;;;;;10.36;100.00;95922.63;5056366;28;20447;-89
2023/01/04 06:28:32;;;;;;;20.10;15.60;;;;;;;10.73;94.55;95922.78;5057375;28;20834;-90
2023/01/04 06:31:04;;;;;;;18.40;13.97;;;;;;;10.91;94.30;95928.53;5056600;28;20498;-88
2023/01/04 06:33:31;;;;;;;20.60;13.77;;;;;;;11.11;92.23;95925.34;5037912;28;20939;-86
2023/01/04 06:35:58;;;;;;;15.93;12.63;;;;;;;11.36;91.62;95948.13;5056686;28;20949;-84
2023/01/04 06:38:25;;;;;;;21.10;14.67;;;;;;;10.96;89.11;95940.38;5056343;28;20452;-83
2023/01/04 06:40:51;;;;;;;26.93;15.17;;;;;;;10.66;91.31;95939.88;5055364;28;20447;-85
2023/01/04 06:43:20;;;;;;;21.10;14.47;;;;;;;10.23;92.28;95929.66;5055513;28;20967;-84
2023/01/04 06:45:46;;;;;;;18.03;13.40;;;;;;;10.04;94.08;95934.41;5055222;28;20925;-84
2023/01/04 06:48:13;;;;;;;20.60;14.30;;;;;;;9.78;94.58;95923.84;5055653;28;20446;-85
2023/01/04 06:50:40;;;;;;;26.37;14.20;;;;;;;9.47;96.39;95929.38;5054789;28;20995;-84
2023/01/04 06:53:07;;;;;;;19.30;14.53;;;;;;;9.30;97.38;95930.47;5055244;28;20470;-84
2023/01/04 06:55:34;;;;;;;22.17;12.83;;;;;;;9.10;98.31;95926.47;5036806;28;20925;-84
2023/01/04 06:58:01;;;;;;;17.57;12.87;;;;;;;9.11;100.00;95935.16;5054985;28;20438;-84
2023/01/04 07:07:12;;;;;;;19.80;14.13;;;;;;;8.91;100.00;95918.91;5035191;28;20421;-83
2023/01/04 07:09:39;;;;;;;25.30;14.57;;;;;;;8.97;100.00;95922.94;5034763;28;20443;-84
2023/01/04 07:12:06;;;;;;;28.73;16.10;;;;;;;8.95;100.00;95930.88;5035388;28;20470;-85
2023/01/04 07:14:33;;;;;;;21.90;15.30;;;;;;;9.01;100.00;95937.53;5034902;28;20524;-84
2023/01/04 07:16:59;;;;;;;26.80;15.50;;;;;;;8.93;100.00;95937.97;5035228;28;20500;-84
2023/01/04 07:19:26;;;;;;;17.23;13.03;;;;;;;8.88;100.00;95947.03;5053307;28;20449;-84
2023/01/04 07:21:53;;;;;;;23.97;14.30;;;;;;;8.87;100.00;95951.44;5053982;28;20445;-84
2023/01/04 07:24:21;;;;;;;22.17;14.93;;;;;;;8.88;100.00;95949.66;5053702;28;20948;-84
2023/01/04 07:26:48;;;;;;;26.53;15.90;;;;;;;8.87;100.00;95956.69;5053523;28;20441;-84
2023/01/04 07:29:15;;;;;;;19.53;13.93;;;;;;;8.95;100.00;95957.03;5053954;28;20500;-85
2023/01/04 07:31:43;;;;;;;20.43;14.07;;;;;;;8.90;100.00;95956.47;5053499;28;20478;-85
2023/01/04 07:34:10;;;;;;;27.83;14.43;;;;;;;8.97;100.00;95963.06;5053569;28;20536;-84
2023/01/04 07:36:37;;;;;;;19.73;13.63;;;;;;;8.92;99.89;95964.25;5053621;28;20506;-84
2023/01/04 07:39:04;;;;;;;19.90;14.23;;;;;;;8.91;99.93;95954.72;5053285;28;20557;-84
2023/01/04 07:41:33;;;;;;;22.80;13.90;;;;;;;8.91;100.00;95954.72;5053756;28;20472;-84
2023/01/04 07:44:00;;;;;;;20.63;11.57;;;;;;;8.94;100.00;95954.50;5053396;28;20449;-84
2023/01/04 07:46:27;;;;;;;20.70;14.13;;;;;;;8.94;100.00;95960.59;5053367;28;20457;-84
2023/01/04 07:48:54;;;;;;;34.83;19.27;;;;;;;8.99;100.00;95960.34;5053728;28;20474;-83
2023/01/04 07:51:21;;;;;;;22.00;16.43;;;;;;;9.01;100.00;95955.84;5053044;28;21007;-84
2023/01/04 07:53:48;;;;;;;23.07;14.23;;;;;;;8.98;100.00;95964.72;5053341;28;20446;-84
2023/01/04 07:56:15;;;;;;;28.97;18.53;;;;;;;9.05;99.24;95967.81;5053110;28;20884;-84
2023/01/04 07:58:43;;;;;;;27.00;18.70;;;;;;;9.07;99.97;95965.94;5034535;28;20446;-84
2023/01/04 08:01:12;;;;;;;17.27;13.80;;;;;;;9.08;100.00;95967.63;5052796;28;20437;-84
2023/01/04 08:03:39;;;;;;;25.53;13.97;;;;;;;9.09;99.86;95973.69;5053154;28;20457;-84
2023/01/04 08:06:07;;;;;;;19.20;12.83;;;;;;;9.07;99.61;95976.41;5052912;28;20445;-84
2023/01/04 08:08:34;;;;;;;20.50;13.80;;;;;;;9.05;99.75;95967.81;5052974;28;20461;-84
2023/01/04 08:11:02;;;;;;;16.83;12.17;;;;;;;9.08;99.60;95980.72;5053000;28;20443;-84
2023/01/04 08:13:29;;;;;;;23.43;14.10;;;;;;;9.09;99.67;95979.78;5050836;28;20544;-84
2023/01/04 08:15:57;;;;;;;24.60;13.90;;;;;;;9.10;99.25;95964.91;5034027;28;20449;-84
2023/01/04 08:18:24;;;;;;;18.60;13.57;;;;;;;9.06;98.76;95969.50;5052632;28;20872;-84
2023/01/04 08:20:51;;;;;;;23.53;15.17;;;;;;;9.03;98.68;95974.91;5052671;28;20924;-83
2023/01/04 08:23:18;;;;;;;20.43;14.80;;;;;;;9.03;99.33;95980.16;5017238;28;20465;-85
2023/01/04 08:25:44;;;;;;;24.10;14.27;;;;;;;9.03;99.66;95979.31;5052805;28;20453;-83
2023/01/04 08:28:11;;;;;;;21.10;15.00;;;;;;;9.11;98.57;95982.28;5052586;28;20457;-84
2023/01/04 08:30:38;;;;;;;18.47;14.03;;;;;;;9.18;98.88;95976.56;5052890;28;20453;-84
2023/01/04 08:33:14;;;;;;;18.40;13.43;;;;;;;9.22;97.85;95975.44;5052662;28;20492;-84
2023/01/04 08:35:41;;;;;;;24.27;15.93;;;;;;;9.25;97.83;95980.53;5052620;28;20815;-84
2023/01/04 08:38:08;;;;;;;21.13;12.80;;;;;;;9.24;97.23;95973.56;5052494;28;20519;-84
2023/01/04 08:40:35;;;;;;;18.90;13.13;;;;;;;9.26;97.84;95979.59;5052667;28;20850;-84
2023/01/04 08:43:03;;;;;;;31.40;16.53;;;;;;;9.26;97.06;95979.59;5052551;28;20516;-84
2023/01/04 08:45:30;;;;;;;28.63;16.60;;;;;;;9.29;97.65;95987.25;5052745;28;20458;-84
2023/01/04 08:47:57;;;;;;;19.97;14.50;;;;;;;9.29;97.56;95986.41;5052456;28;20446;-84
2023/01/04 08:50:25;;;;;;;15.57;11.60;;;;;;;9.28;98.56;95984.72;5052326;28;20879;-83
2023/01/04 08:52:52;;;;;;;21.27;13.20;;;;;;;9.29;97.00;95986.41;5038517;28;20490;-84
2023/01/04 08:55:19;;;;;;;19.40;13.33;;;;;;;9.23;98.46;95969.28;5039417;28;20462;-83
2023/01/04 08:57:45;;;;;;;19.33;11.60;;;;;;;9.28;97.57;95989.97;5049046;28;20508;-83
2023/01/04 09:00:13;;;;;;;18.30;13.13;;;;;;;9.26;97.57;95992.69;5044354;28;20457;-85
2023/01/04 09:02:40;;;;;;;19.10;13.23;;;;;;;9.28;96.85;95993.41;5052993;28;20445;-82
2023/01/04 09:05:08;;;;;;;17.70;13.33;;;;;;;9.37;97.65;95983.31;5047828;28;20455;-81
2023/01/04 09:07:36;;;;;;;18.93;13.20;;;;;;;9.34;96.65;95983.50;5053206;28;20604;-83
2023/01/04 09:10:02;;;;;;;31.10;15.97;;;;;;;9.34;98.22;95993.97;5054010;28;20437;-86
2023/01/04 09:12:35;;;;;;;23.70;14.83;;;;;;;9.32;97.65;95991.44;5053866;28;20477;-87
2023/01/04 09:15:04;;;;;;;26.30;15.17;;;;;;;9.35;97.50;95980.78;5053351;28;20442;-89
2023/01/04 09:17:30;;;;;;;28.27;15.77;;;;;;;9.34;96.97;95988.72;5038458;28;20513;-84
2023/01/04 09:19:57;;;;;;;21.40;14.20;;;;;;;9.36;96.97;95976.38;5053883;28;20858;-86
2023/01/04 09:22:24;;;;;;;19.43;14.13;;;;;;;9.30;96.75;95978.44;5053952;28;20453;-88
2023/01/04 09:24:52;;;;;;;17.57;13.27;;;;;;;9.21;96.47;95975.53;5054279;28;20807;-89
2023/01/04 09:27:19;;;;;;;18.93;14.30;;;;;;;9.22;97.21;95978.06;5054587;28;21145;-88
2023/01/04 09:29:47;;;;;;;18.00;13.00;;;;;;;9.21;95.99;95973.75;5053932;28;20453;-87
2023/01/04 09:32:13;;;;;;;19.83;13.47;;;;;;;9.31;95.97;95977.50;5054654;28;20478;-87
2023/01/04 09:34:40;;;;;;;26.50;15.63;;;;;;;9.38;95.99;95969.25;5058062;28;20434;-88
2023/01/04 09:37:07;;;;;;;19.10;12.40;;;;;;;9.34;95.80;95967.78;5058184;28;20528;-88
2023/01/04 09:39:34;;;;;;;29.43;14.73;;;;;;;9.28;96.02;95962.00;5057238;28;20438;-84
2023/01/04 09:42:05;;;;;;;25.23;14.07;;;;;;;9.23;95.79;95966.66;5057512;28;20472;-86
2023/01/04 09:44:37;;;;;;;25.00;15.00;;;;;;;9.23;97.21;95971.03;5057947;28;20457;-89
2023/01/04 09:50:29;;;;;;;25.70;15.57;;;;;;;9.38;95.75;95977.13;5032587;28;20536;-90
2023/01/04 09:53:03;;;;;;;22.87;12.80;;;;;;;9.35;96.03;95969.47;5037646;28;20489;-88
2023/01/04 09:55:35;;;;;;;21.83;12.63;;;;;;;9.29;95.56;95965.44;5038280;28;20512;-88
2023/01/04 09:58:08;;;;;;;18.50;11.30;;;;;;;9.25;93.86;95964.81;5037791;28;20454;-87
2023/01/04 10:00:40;;;;;;;17.90;12.57;;;;;;;9.24;94.43;95967.50;5037895;28;20454;-89
2023/01/04 10:03:15;;;;;;;19.77;12.77;;;;;;;9.22;94.70;95954.50;5037272;28;20447;-89
2023/01/04 10:05:42;;;;;;;19.53;14.20;;;;;;;9.23;94.49;95961.41;5050865;28;20445;-89
2023/01/04 10:08:16;;;;;;;28.83;17.70;;;;;;;9.29;94.54;95960.22;5046620;28;20445;-92
2023/01/04 10:10:50;;;;;;;21.60;13.67;;;;;;;9.36;94.21;95964.13;5053604;28;20543;-89
2023/01/04 10:13:34;;;;;;;26.40;13.80;;;;;;;9.41;95.08;95961.22;5057036;28;20542;-91
2023/01/04 10:16:09;;;;;;;23.23;15.10;;;;;;;9.44;94.50;95961.84;5057740;28;20464;-86
2023/01/04 10:18:47;;;;;;;18.17;12.53;;;;;;;9.42;94.05;95960.28;5057283;28;20524;-92
2023/01/04 10:21:31;;;;;;;24.10;14.83;;;;;;;9.41;95.05;95963.84;5057542;28;20465;-90
2023/01/04 10:24:18;;;;;;;18.27;11.23;;;;;;;9.36;94.50;95956.25;5057307;28;20430;-90
2023/01/04 10:26:47;;;;;;;21.93;14.03;;;;;;;9.40;94.36;95959.53;5057446;28;20442;-92
2023/01/04 10:29:52;;;;;;;38.83;15.47;;;;;;;9.43;94.50;95961.94;5057585;28;20445;-89
2023/01/04 10:32:29;;;;;;;26.77;14.33;;;;;;;9.41;93.98;95963.84;5036111;28;20482;-94
2023/01/04 10:34:56;;;;;;;17.67;12.27;;;;;;;9.42;94.02;95965.50;5035639;28;20455;-89
2023/01/04 10:37:26;;;;;;;28.57;14.13;;;;;;;9.43;94.02;95957.56;5035127;28;20456;-86
2023/01/04 10:39:55;;;;;;;20.23;13.77;;;;;;;9.48;94.76;95954.63;5035297;28;20461;-89
2023/01/04 10:42:33;;;;;;;25.30;14.03;;;;;;;9.52;94.13;95950.88;5035347;28;20448;-89
2023/01/04 10:45:13;;;;;;;25.83;16.43;;;;;;;9.43;95.13;95949.69;5033489;28;20439;-86
2023/01/04 10:54:35;;;;;;;19.70;13.13;;;;;;;9.46;94.92;95964.38;5026401;28;20891;-87
2023/01/04 10:57:07;;;;;;;22.27;15.30;;;;;;;9.47;95.54;95952.97;5034887;28;20458;-87
2023/01/04 10:59:38;;;;;;;23.63;17.83;;;;;;;9.44;94.38;95953.16;5034914;28;20945;-87
2023/01/04 11:02:18;;;;;;;26.00;16.63;;;;;;;9.41;94.60;95954.19;5034486;28;20453;-87
2023/01/04 11:05:05;;;;;;;19.40;15.20;;;;;;;9.37;95.21;95951.88;5001537;28;20447;-87
2023/01/04 11:07:39;;;;;;;27.43;17.10;;;;;;;9.40;96.21;95944.66;5053126;28;20459;-87
2023/01/04 11:10:13;;;;;;;25.63;17.00;;;;;;;9.44;96.36;95947.91;5055627;28;20947;-88
2023/01/04 11:12:40;;;;;;;32.30;21.57;;;;;;;9.48;95.21;95950.25;5043695;28;20490;-88
2023/01/04 11:15:09;;;;;;;24.47;16.57;;;;;;;9.53;95.27;95942.06;5059077;28;20553;-87
2023/01/04 11:17:37;;;;;;;28.10;16.00;;;;;;;9.58;96.06;95948.72;5056862;28;20468;-88
2023/01/04 11:20:05;;;;;;;19.83;14.07;;;;;;;9.62;94.47;95934.50;5056234;28;20450;-88
2023/01/04 11:22:38;;;;;;;21.53;15.07;;;;;;;9.63;94.57;95930.94;5057427;28;20455;-88
2023/01/04 11:25:11;;;;;;;27.73;16.27;;;;;;;9.70;94.50;95935.78;5057378;28;20457;-87
2023/01/04 11:27:45;;;;;;;25.47;18.83;;;;;;;9.77;94.73;95929.19;5057746;28;21036;-88
2023/01/04 11:30:18;;;;;;;31.93;18.47;;;;;;;9.80;94.11;95916.72;5056222;28;20593;-88
2023/01/04 11:32:53;;;;;;;22.77;15.60;;;;;;;9.87;93.67;95915.41;5058236;28;20479;-84
2023/01/04 11:35:39;;;;;;;21.50;12.60;;;;;;;9.93;94.01;95914.16;5059588;28;20453;-87
2023/01/04 11:38:15;;;;;;;26.70;12.00;;;;;;;9.89;92.13;95916.13;5057362;28;20459;-88
2023/01/04 11:40:42;;;;;;;19.20;12.20;;;;;;;9.87;93.45;95912.78;5056047;28;20458;-89
2023/01/04 11:43:17;;;;;;;22.63;14.57;;;;;;;9.81;93.15;95904.44;5055833;28;20462;-92
2023/01/04 11:45:59;;;;;;;22.40;13.90;;;;;;;9.78;93.27;95904.66;5055214;28;20972;-90
2023/01/04 11:48:42;;;;;;;20.70;14.17;;;;;;;9.77;93.31;95913.47;5055729;28;20503;-90
2023/01/04 11:51:19;;;;;;;19.13;13.47;;;;;;;9.79;94.36;95901.09;5052016;28;20457;-86
2023/01/04 11:53:46;;;;;;;20.70;12.83;;;;;;;9.86;93.33;95907.63;5052398;28;20497;-89
2023/01/04 11:56:16;;;;;;;20.57;13.47;;;;;;;9.83;92.36;95898.19;5052322;28;20955;-87
2023/01/04 11:58:45;;;;;;;21.20;11.60;;;;;;;9.80;92.48;95901.00;5053473;28;20941;-88
2023/01/04 12:01:21;;;;;;;18.20;13.63;;;;;;;9.69;92.51;95906.09;5052328;28;20453;-90
2023/01/04 12:03:50;;;;;;;23.53;12.73;;;;;;;9.68;93.06;95898.34;5052354;28;20430;-88
2023/01/04 12:06:20;;;;;;;18.17;13.73;;;;;;;9.65;93.59;95899.38;5054763;28;20450;-87
2023/01/04 12:08:51;;;;;;;19.93;14.53;;;;;;;9.62;92.82;95894.34;5054212;28;21049;-91
2023/01/04 12:11:26;;;;;;;20.80;14.47;;;;;;;9.61;93.32;95890.88;5054325;28;20470;-89
2023/01/04 12:13:52;;;;;;;32.77;15.10;;;;;;;9.62;93.70;95897.81;5054198;28;20504;-88
2023/01/04 12:16:28;;;;;;;25.00;16.47;;;;;;;9.61;93.76;95896.13;5053115;28;20795;-87
2023/01/04 12:18:57;;;;;;;25.10;17.23;;;;;;;9.67;93.32;95902.75;5052484;28;20944;-87
2023/01/04 12:21:26;;;;;;;41.67;19.50;;;;;;;9.69;93.11;95890.38;5053026;28;20460;-87
2023/01/04 12:23:55;;;;;;;29.10;18.73;;;;;;;9.74;93.69;95898.78;5053412;28;20827;-87
2023/01/04 12:26:23;;;;;;;21.77;14.80;;;;;;;9.74;93.31;95895.31;5053800;28;20466;-87
2023/01/04 12:28:57;;;;;;;19.23;14.53;;;;;;;9.78;93.47;95888.94;5053935;28;20446;-88
2023/01/04 12:31:33;;;;;;;29.53;16.90;;;;;;;9.89;93.21;95887.28;5053605;28;20491;-88
2023/01/04 12:34:41;;;;;;;27.50;15.80;;;;;;;9.99;92.92;95881.44;5020339;28;20995;-89
2023/01/04 12:37:10;;;;;;;29.90;17.40;;;;;;;10.16;92.13;95883.78;5053780;28;20873;-88
2023/01/04 12:39:42;;;;;;;23.33;13.10;;;;;;;10.19;91.44;95888.81;5053314;28;20968;-88
2023/01/04 12:42:23;;;;;;;23.90;14.63;;;;;;;10.28;90.80;95885.59;5053811;28;20945;-88
2023/01/04 12:45:02;;;;;;;21.10;14.33;;;;;;;10.35;90.91;95884.22;5053948;28;20497;-88
2023/01/04 12:50:30;;;;;;;20.73;11.93;;;;;;;10.33;90.43;95888.75;5053528;28;20566;-88
2023/01/04 12:53:00;;;;;;;21.60;14.33;;;;;;;10.30;90.45;95882.88;5054377;28;20486;-88
2023/01/04 12:55:52;;;;;;;17.53;13.47;;;;;;;10.26;89.86;95879.63;5053913;28;20501;-88
2023/01/04 12:59:05;;;;;;;20.23;11.23;;;;;;;10.30;90.29;95875.00;5053719;28;20786;-87
2023/01/04 13:01:31;;;;;;;17.83;11.53;;;;;;;10.19;90.22;95867.84;5053322;28;20504;-87
2023/01/04 13:04:01;;;;;;;15.40;12.07;;;;;;;10.26;91.04;95866.50;5053452;28;20950;-87
2023/01/04 13:06:34;;;;;;;16.93;12.40;;;;;;;10.24;90.08;95860.53;5053844;28;20450;-86
2023/01/04 13:09:01;;;;;;;20.60;13.53;;;;;;;10.28;90.01;95853.28;5056717;28;20446;-86
2023/01/04 13:11:51;;;;;;;22.57;14.50;;;;;;;10.26;90.44;95855.16;5058005;28;20804;-86
2023/01/04 13:14:26;;;;;;;16.60;12.93;;;;;;;10.24;90.80;95860.53;5054797;28;20551;-87
2023/01/04 13:17:10;;;;;;;26.57;13.47;;;;;;;10.31;90.91;95861.78;5057612;28;20437;-86
2023/01/04 13:19:40;;;;;;;21.53;14.10;;;;;;;10.40;90.51;95861.13;5058298;28;20461;-86
2023/01/04 13:22:17;;;;;;;24.40;15.80;;;;;;;10.40;89.67;95863.75;5058816;28;20447;-88
2023/01/04 13:24:46;;;;;;;25.23;16.33;;;;;;;10.37;89.39;95861.34;5058348;28;20440;-84
2023/01/04 13:27:18;;;;;;;25.40;16.20;;;;;;;10.38;90.21;95867.44;5058620;28;20446;-86
2023/01/04 13:29:46;;;;;;;22.37;14.17;;;;;;;10.23;90.47;95872.78;5058104;28;20446;-88
2023/01/04 13:32:18;;;;;;;22.50;15.53;;;;;;;10.24;90.64;95878.88;5023292;28;20484;-86
2023/01/04 13:34:51;;;;;;;22.27;15.47;;;;;;;10.23;91.18;95885.06;5058807;28;20496;-89
2023/01/04 13:37:28;;;;;;;26.93;16.40;;;;;;;10.26;91.05;95881.41;5058492;28;20825;-91
2023/01/04 13:40:15;;;;;;;28.00;19.33;;;;;;;10.26;90.56;95879.63;5058441;28;20918;-89
2023/01/04 13:42:46;;;;;;;25.37;17.47;;;;;;;10.29;92.13;95886.44;5058853;28;20872;-89